createdAt,value
2022-11-26T00:02:18.358Z,8.20
2022-11-26T00:04:47.055Z,7.60
2022-11-26T00:07:18.695Z,7.40
2022-11-26T00:09:48.644Z,7.68
2022-11-26T00:12:18.625Z,7.45
2022-11-26T00:14:47.272Z,6.78
2022-11-26T00:17:16.984Z,6.65
2022-11-26T00:19:47.007Z,6.78
2022-11-26T00:22:25.144Z,6.72
2022-11-26T00:24:55.886Z,7.30
2022-11-26T00:27:27.498Z,7.88
2022-11-26T00:29:56.610Z,7.32
2022-11-26T00:32:26.672Z,7.07
2022-11-26T00:37:27.231Z,6.50
2022-11-26T00:39:58.329Z,6.93
2022-11-26T00:42:26.833Z,6.30
2022-11-26T00:44:55.209Z,5.75
2022-11-26T00:47:23.628Z,6.15
2022-11-26T00:49:52.091Z,6.05
2022-11-26T00:52:27.424Z,6.03
2022-11-26T00:54:57.306Z,5.97
2022-11-26T00:57:25.799Z,6.85
2022-11-26T00:59:54.140Z,6.32
2022-11-26T01:02:22.707Z,6.07
2022-11-26T01:04:51.241Z,6.30
2022-11-26T01:07:19.905Z,6.22
2022-11-26T01:09:50.295Z,5.82
2022-11-26T01:12:20.093Z,6.18
2022-11-26T01:14:48.561Z,5.35
2022-11-26T01:17:17.190Z,6.07
2022-11-26T01:19:45.715Z,5.78
2022-11-26T01:22:21.138Z,5.72
2022-11-26T01:24:50.137Z,6.15
2022-11-26T01:27:20.975Z,6.03
2022-11-26T01:29:49.549Z,6.25
2022-11-26T01:32:18.068Z,6.30
2022-11-26T01:34:46.514Z,5.90
2022-11-26T01:37:15.401Z,5.65
2022-11-26T01:39:43.995Z,6.38
2022-11-26T01:42:26.786Z,6.60
2022-11-26T01:44:55.431Z,6.60
2022-11-26T01:47:26.196Z,6.45
2022-11-26T01:50:32.345Z,6.70
2022-11-26T01:53:05.050Z,6.55
2022-11-26T01:55:39.583Z,6.25
2022-11-26T01:58:13.362Z,6.07
2022-11-26T02:00:41.904Z,6.72
2022-11-26T02:03:11.175Z,6.03
2022-11-26T02:05:44.216Z,6.88
2022-11-26T02:08:13.751Z,7.38
2022-11-26T02:10:42.250Z,6.75
2022-11-26T02:13:12.191Z,6.78
2022-11-26T02:15:49.809Z,7.22
2022-11-26T02:18:18.657Z,7.80
2022-11-26T02:20:55.943Z,7.50
2022-11-26T02:24:02.598Z,6.93
2022-11-26T02:26:58.082Z,7.30
2022-11-26T02:29:44.565Z,8.18
2022-11-26T02:32:17.937Z,6.88
2022-11-26T02:34:53.644Z,8.10
2022-11-26T02:37:26.545Z,7.07
2022-11-26T02:39:55.025Z,6.85
2022-11-26T02:42:27.874Z,6.95
2022-11-26T02:45:00.154Z,6.72
2022-11-26T02:47:30.289Z,7.55
2022-11-26T02:52:31.135Z,5.97
2022-11-26T02:55:01.291Z,6.65
2022-11-26T02:57:34.038Z,7.10
2022-11-26T03:00:04.967Z,7.60
2022-11-26T03:02:39.271Z,6.47
2022-11-26T03:05:09.784Z,6.90
2022-11-26T03:07:39.229Z,6.95
2022-11-26T03:10:09.080Z,6.57
2022-11-26T03:12:37.505Z,6.57
2022-11-26T03:15:08.544Z,6.90
2022-11-26T03:17:37.171Z,7.05
2022-11-26T03:20:07.149Z,6.45
2022-11-26T03:22:35.606Z,6.70
2022-11-26T03:25:05.106Z,6.60
2022-11-26T03:27:33.510Z,6.45
2022-11-26T03:30:02.024Z,6.20
2022-11-26T03:32:31.800Z,5.85
2022-11-26T03:35:00.252Z,6.07
2022-11-26T03:37:28.726Z,6.55
2022-11-26T03:39:57.240Z,5.32
2022-11-26T03:42:25.767Z,6.20
2022-11-26T03:44:54.238Z,6.32
2022-11-26T03:47:22.718Z,5.57
2022-11-26T03:49:52.654Z,5.90
2022-11-26T03:52:21.080Z,5.32
2022-11-26T03:54:49.633Z,5.38
2022-11-26T03:57:18.352Z,6.18
2022-11-26T03:59:46.833Z,5.88
2022-11-26T04:02:15.414Z,5.80
2022-11-26T04:04:43.920Z,5.93
2022-11-26T04:07:13.798Z,5.57
2022-11-26T04:09:42.262Z,6.03
2022-11-26T04:12:10.874Z,4.68
2022-11-26T04:14:39.524Z,5.07
2022-11-26T04:17:08.290Z,5.38
2022-11-26T04:19:36.725Z,5.15
2022-11-26T04:22:05.290Z,5.30
2022-11-26T04:24:35.152Z,5.38
2022-11-26T04:27:03.610Z,5.18
2022-11-26T04:29:32.232Z,4.88
2022-11-26T04:32:00.738Z,5.20
2022-11-26T04:34:29.546Z,5.35
2022-11-26T04:36:57.974Z,4.75
2022-11-26T04:39:26.411Z,5.00
2022-11-26T04:41:56.152Z,4.55
2022-11-26T04:44:24.788Z,4.60
2022-11-26T04:46:53.206Z,5.38
2022-11-26T04:49:21.672Z,4.65
2022-11-26T04:51:50.123Z,5.28
2022-11-26T04:54:18.548Z,4.40
2022-11-26T04:56:47.047Z,5.15
2022-11-26T04:59:16.933Z,4.75
2022-11-26T05:01:45.544Z,5.15
2022-11-26T05:04:14.119Z,4.55
2022-11-26T05:06:42.644Z,5.30
2022-11-26T05:09:11.148Z,5.30
2022-11-26T05:11:39.688Z,4.88
2022-11-26T05:14:08.459Z,5.07
2022-11-26T05:16:38.491Z,4.72
2022-11-26T05:19:07.115Z,4.78
2022-11-26T05:21:35.551Z,4.20
2022-11-26T05:24:04.198Z,4.50
2022-11-26T05:26:32.636Z,4.43
2022-11-26T05:29:01.099Z,4.03
2022-11-26T05:31:30.058Z,4.72
2022-11-26T05:33:59.991Z,4.65
2022-11-26T05:36:28.418Z,5.00
2022-11-26T05:38:56.922Z,4.63
2022-11-26T05:41:25.615Z,4.45
2022-11-26T05:43:54.076Z,4.57
2022-11-26T05:46:22.690Z,5.00
2022-11-26T05:48:51.131Z,4.78
2022-11-26T05:51:21.021Z,5.25
2022-11-26T05:53:49.444Z,4.70
2022-11-26T05:56:17.910Z,6.18
2022-11-26T05:58:46.431Z,5.20
2022-11-26T06:01:14.916Z,4.78
2022-11-26T06:03:43.575Z,5.22
2022-11-26T06:06:12.123Z,4.88
2022-11-26T06:08:41.947Z,4.97
2022-11-26T06:11:12.444Z,5.15
2022-11-26T06:13:41.179Z,5.55
2022-11-26T06:16:10.108Z,5.60
2022-11-26T06:18:39.340Z,5.07
2022-11-26T06:21:09.146Z,5.57
2022-11-26T06:23:37.591Z,4.72
2022-11-26T06:26:10.188Z,5.55
2022-11-26T06:28:39.091Z,5.10
2022-11-26T06:31:09.645Z,4.72
2022-11-26T06:33:38.335Z,4.05
2022-11-26T06:36:07.401Z,4.60
2022-11-26T06:38:35.967Z,4.88
2022-11-26T06:41:06.557Z,5.13
2022-11-26T06:43:37.269Z,5.20
2022-11-26T06:46:08.471Z,5.22
2022-11-26T06:48:38.435Z,5.65
2022-11-26T06:51:07.962Z,5.47
2022-11-26T06:53:36.813Z,5.22
2022-11-26T06:56:06.714Z,4.80
2022-11-26T06:58:36.597Z,4.60
2022-11-26T07:01:09.218Z,4.75
2022-11-26T07:03:38.237Z,5.70
2022-11-26T07:06:06.914Z,6.38
2022-11-26T07:08:35.371Z,5.60
2022-11-26T07:11:04.308Z,6.60
2022-11-26T07:13:32.871Z,7.30
2022-11-26T07:16:04.716Z,6.20
2022-11-26T07:18:33.781Z,6.80
2022-11-26T07:21:06.791Z,6.40
2022-11-26T07:23:35.301Z,6.10
2022-11-26T07:26:05.088Z,5.78
2022-11-26T07:28:34.647Z,5.60
2022-11-26T07:31:09.137Z,5.28
2022-11-26T07:33:40.499Z,5.55
2022-11-26T07:36:12.335Z,5.35
2022-11-26T07:38:40.875Z,6.72
2022-11-26T07:41:11.541Z,6.55
2022-11-26T07:43:41.692Z,6.60
2022-11-26T07:46:13.724Z,6.70
2022-11-26T07:48:44.344Z,6.43
2022-11-26T07:51:18.030Z,6.38
2022-11-26T07:53:46.631Z,7.20
2022-11-26T07:56:15.432Z,7.18
2022-11-26T07:58:43.948Z,5.78
2022-11-26T08:01:16.594Z,5.60
2022-11-26T08:03:47.033Z,5.22
2022-11-26T08:06:17.501Z,7.15
2022-11-26T08:08:46.306Z,6.28
2022-11-26T08:11:16.918Z,6.45
2022-11-26T08:13:46.518Z,6.88
2022-11-26T08:16:16.784Z,6.90
2022-11-26T08:18:45.295Z,5.53
2022-11-26T08:21:13.887Z,6.03
2022-11-26T08:23:42.369Z,5.35
2022-11-26T08:26:33.970Z,5.13
2022-11-26T08:29:01.356Z,4.75
2022-11-26T08:31:31.235Z,9.55
2022-11-26T08:34:00.372Z,6.57
2022-11-26T08:36:30.133Z,4.55
2022-11-26T08:38:59.732Z,4.38
2022-11-26T08:41:28.826Z,5.35
2022-11-26T08:44:06.715Z,6.80
2022-11-26T08:46:38.160Z,4.88
2022-11-26T08:49:07.962Z,4.75
2022-11-26T08:51:37.004Z,4.10
2022-11-26T08:54:05.853Z,4.45
2022-11-26T08:56:35.027Z,4.70
2022-11-26T08:59:03.836Z,4.85
2022-11-26T09:01:34.348Z,4.57
2022-11-26T09:04:05.003Z,4.20
2022-11-26T09:06:36.648Z,4.03
2022-11-26T09:09:15.454Z,4.32
2022-11-26T09:11:47.981Z,4.38
2022-11-26T09:14:18.032Z,4.40
2022-11-26T09:21:45.892Z,3.63
2022-11-26T09:24:16.416Z,3.95
2022-11-26T09:26:45.323Z,3.47
2022-11-26T09:29:15.531Z,3.92
2022-11-26T09:32:01.194Z,4.72
2022-11-26T09:34:34.555Z,4.35
2022-11-26T09:39:31.627Z,4.55
2022-11-26T09:42:07.432Z,3.08
2022-11-26T09:44:55.149Z,2.92
2022-11-26T09:47:27.838Z,3.08
2022-11-26T09:50:04.333Z,2.67
2022-11-26T09:52:38.211Z,2.60
2022-11-26T09:55:15.560Z,3.05
2022-11-26T09:57:49.028Z,2.83
2022-11-26T10:00:24.458Z,3.42
2022-11-26T10:02:54.418Z,2.63
2022-11-26T10:08:05.462Z,2.10
2022-11-26T10:10:42.720Z,2.10
2022-11-26T10:13:23.326Z,2.13
2022-11-26T10:16:01.056Z,2.03
2022-11-26T10:18:41.278Z,1.70
2022-11-26T10:21:32.465Z,2.00
2022-11-26T10:24:14.682Z,2.10
2022-11-26T10:26:44.454Z,2.17
2022-11-26T10:29:23.110Z,1.90
2022-11-26T10:31:58.553Z,1.90
2022-11-26T10:34:39.531Z,1.88
2022-11-26T10:37:09.786Z,1.73
2022-11-26T10:39:38.330Z,2.50
2022-11-26T10:42:17.143Z,1.75
2022-11-26T10:44:46.816Z,2.22
2022-11-26T10:47:31.088Z,2.20
2022-11-26T10:50:46.080Z,2.78
2022-11-26T10:53:21.251Z,2.28
2022-11-26T10:55:50.450Z,2.30
2022-11-26T10:58:22.669Z,1.90
2022-11-26T11:00:59.453Z,2.22
2022-11-26T11:04:06.156Z,2.72
2022-11-26T11:06:38.500Z,6.95
2022-11-26T11:09:34.761Z,2.42
2022-11-26T11:12:21.893Z,2.05
2022-11-26T11:14:52.014Z,2.13
2022-11-26T11:17:31.301Z,2.42
2022-11-26T11:20:02.262Z,2.00
2022-11-26T11:22:31.051Z,2.40
2022-11-26T11:25:01.433Z,6.97
2022-11-26T11:27:38.847Z,4.90
2022-11-26T11:30:10.087Z,2.70
2022-11-26T11:32:40.975Z,1.90
2022-11-26T11:35:21.970Z,2.25
2022-11-26T11:37:52.779Z,2.03
2022-11-26T11:40:27.583Z,2.35
2022-11-26T11:42:59.118Z,2.08
2022-11-26T11:45:34.899Z,1.50
2022-11-26T11:48:17.790Z,1.77
2022-11-26T11:50:54.711Z,2.92
2022-11-26T11:53:35.123Z,3.35
2022-11-26T11:56:19.024Z,2.35
2022-11-26T11:59:03.924Z,2.63
2022-11-26T12:01:46.611Z,2.75
2022-11-26T12:04:26.601Z,2.40
2022-11-26T12:07:10.934Z,2.50
2022-11-26T12:10:04.860Z,2.33
2022-11-26T12:12:36.395Z,2.28
2022-11-26T12:15:11.432Z,2.00
2022-11-26T12:17:45.794Z,1.95
2022-11-26T12:20:23.375Z,1.90
2022-11-26T12:22:58.055Z,1.88
2022-11-26T12:25:36.698Z,2.40
2022-11-26T12:28:13.801Z,2.58
2022-11-26T12:30:49.286Z,2.03
2022-11-26T12:33:21.678Z,2.08
2022-11-26T12:35:55.184Z,1.83
2022-11-26T12:38:28.349Z,1.70
2022-11-26T12:41:02.387Z,2.10
2022-11-26T12:43:46.041Z,4.93
2022-11-26T12:46:20.705Z,2.00
2022-11-26T12:48:55.955Z,1.73
2022-11-26T12:51:30.423Z,2.00
2022-11-26T12:54:11.607Z,2.15
2022-11-26T12:56:51.340Z,1.63
2022-11-26T12:59:25.087Z,2.15
2022-11-26T13:01:53.717Z,2.22
2022-11-26T13:04:37.645Z,2.10
2022-11-26T13:07:19.652Z,1.90
2022-11-26T13:10:02.619Z,3.70
2022-11-26T13:12:45.334Z,1.20
2022-11-26T13:15:22.491Z,1.77
2022-11-26T13:17:51.991Z,1.30
2022-11-26T13:20:39.982Z,1.52
2022-11-26T13:23:25.441Z,2.05
2022-11-26T13:26:08.999Z,2.20
2022-11-26T13:28:55.292Z,1.60
2022-11-26T13:31:43.611Z,1.40
2022-11-26T13:34:40.773Z,1.70
2022-11-26T13:37:44.670Z,1.33
2022-11-26T13:40:56.043Z,1.52
2022-11-26T13:44:08.029Z,1.50
2022-11-26T13:46:39.408Z,1.23
2022-11-26T13:49:13.104Z,1.60
2022-11-26T13:51:47.641Z,1.35
2022-11-26T13:54:22.472Z,1.70
2022-11-26T13:56:58.400Z,2.92
2022-11-26T13:59:30.230Z,1.65
2022-11-26T14:01:59.304Z,1.40
2022-11-26T14:04:53.506Z,1.70
2022-11-26T14:07:22.626Z,1.40
2022-11-26T14:09:54.748Z,1.30
2022-11-26T14:12:24.704Z,1.60
2022-11-26T14:14:54.585Z,1.42
2022-11-26T14:17:31.286Z,1.42
2022-11-26T14:20:09.199Z,1.77
2022-11-26T14:22:38.771Z,1.55
2022-11-26T14:25:14.342Z,1.13
2022-11-26T14:27:50.542Z,1.50
2022-11-26T14:30:25.756Z,1.80
2022-11-26T14:33:15.934Z,1.75
2022-11-26T14:35:55.388Z,1.80
2022-11-26T14:38:27.695Z,2.00
2022-11-26T14:41:00.906Z,1.77
2022-11-26T14:43:31.695Z,1.98
2022-11-26T14:46:06.506Z,2.15
2022-11-26T14:48:38.471Z,2.28
2022-11-26T14:51:09.385Z,2.28
2022-11-26T14:53:43.945Z,2.47
2022-11-26T14:56:12.585Z,2.42
2022-11-26T14:58:45.503Z,2.50
2022-11-26T15:01:23.458Z,3.30
2022-11-26T15:03:57.545Z,2.95
2022-11-26T15:06:28.759Z,2.70
2022-11-26T15:09:17.089Z,2.15
2022-11-26T15:11:49.028Z,2.17
2022-11-26T15:14:25.760Z,3.13
2022-11-26T15:17:01.542Z,2.40
2022-11-26T15:19:35.714Z,2.30
2022-11-26T15:22:06.884Z,2.92
2022-11-26T15:24:36.336Z,2.33
2022-11-26T15:27:04.983Z,2.88
2022-11-26T15:29:36.476Z,2.33
2022-11-26T15:32:06.871Z,2.53
2022-11-26T15:34:35.654Z,2.75
2022-11-26T15:37:05.856Z,2.88
2022-11-26T15:39:34.268Z,2.90
2022-11-26T15:42:06.310Z,3.15
2022-11-26T15:44:42.330Z,2.90
2022-11-26T15:47:20.031Z,3.22
2022-11-26T15:49:54.121Z,3.20
2022-11-26T15:52:25.829Z,2.92
2022-11-26T15:55:16.798Z,3.03
2022-11-26T15:57:50.902Z,3.00
2022-11-26T16:00:23.957Z,4.25
2022-11-26T16:02:54.356Z,2.67
2022-11-26T16:08:00.608Z,2.67
2022-11-26T16:10:31.370Z,2.90
2022-11-26T16:13:08.916Z,3.60
2022-11-26T16:15:45.274Z,2.97
2022-11-26T16:18:18.807Z,3.10
2022-11-26T16:20:47.943Z,2.70
2022-11-26T16:23:29.572Z,2.03
2022-11-26T16:26:15.144Z,2.20
2022-11-26T16:28:44.832Z,2.72
2022-11-26T16:31:14.228Z,2.70
2022-11-26T16:33:44.900Z,2.03
2022-11-26T16:36:22.834Z,2.45
2022-11-26T16:38:52.231Z,2.85
2022-11-26T16:41:22.685Z,2.72
2022-11-26T16:43:51.387Z,2.50
2022-11-26T16:46:23.256Z,3.10
2022-11-26T16:48:53.510Z,3.72
2022-11-26T16:51:22.849Z,3.67
2022-11-26T16:53:51.498Z,3.88
2022-11-26T16:56:23.431Z,3.92
2022-11-26T16:58:52.940Z,7.93
2022-11-26T17:01:21.743Z,8.13
2022-11-26T17:03:50.257Z,7.88
2022-11-26T17:06:25.634Z,6.82
2022-11-26T17:08:56.433Z,6.55
2022-11-26T17:11:25.579Z,6.15
2022-11-26T17:13:54.285Z,7.70
2022-11-26T17:16:25.967Z,7.20
2022-11-26T17:18:54.588Z,6.82
2022-11-26T17:21:24.390Z,6.95
2022-11-26T17:23:52.791Z,7.20
2022-11-26T17:26:24.119Z,6.30
2022-11-26T17:28:52.717Z,6.13
2022-11-26T17:31:21.288Z,6.30
2022-11-26T17:33:50.616Z,5.25
2022-11-26T17:36:22.043Z,4.95
2022-11-26T17:38:52.494Z,6.03
2022-11-26T17:41:20.991Z,5.15
2022-11-26T17:43:49.507Z,6.55
2022-11-26T17:46:20.237Z,6.25
2022-11-26T17:48:50.298Z,6.55
2022-11-26T17:51:20.260Z,8.00
2022-11-26T17:53:48.906Z,7.80
2022-11-26T17:56:21.429Z,10.32
2022-11-26T17:58:50.471Z,12.48
2022-11-26T18:01:19.251Z,8.18
2022-11-26T18:03:48.414Z,8.15
2022-11-26T18:06:18.419Z,7.68
2022-11-26T18:08:47.405Z,8.27
2022-11-26T18:11:17.295Z,8.88
2022-11-26T18:13:47.236Z,9.60
2022-11-26T18:16:15.815Z,8.50
2022-11-26T18:18:44.350Z,8.13
2022-11-26T18:21:13.345Z,7.72
2022-11-26T18:23:47.699Z,7.85
2022-11-26T18:26:18.515Z,7.65
2022-11-26T18:28:48.328Z,6.43
2022-11-26T18:31:16.889Z,6.22
2022-11-26T18:33:45.392Z,6.47
2022-11-26T18:36:13.830Z,5.82
2022-11-26T18:38:42.378Z,5.30
2022-11-26T18:41:10.868Z,5.18
2022-11-26T18:43:40.396Z,6.07
2022-11-26T18:46:15.429Z,5.72
2022-11-26T18:48:45.825Z,5.82
2022-11-26T18:51:15.226Z,4.95
2022-11-26T18:53:44.430Z,5.32
2022-11-26T18:56:14.764Z,5.15
2022-11-26T18:58:43.740Z,5.25
2022-11-26T19:01:15.114Z,5.15
2022-11-26T19:03:44.794Z,5.80
2022-11-26T19:06:17.547Z,5.45
2022-11-26T19:08:46.622Z,6.40
2022-11-26T19:11:17.781Z,4.93
2022-11-26T19:13:46.454Z,5.63
2022-11-26T19:16:18.335Z,6.13
2022-11-26T19:18:49.339Z,6.65
2022-11-26T19:21:19.508Z,8.55
2022-11-26T19:23:48.201Z,8.48
2022-11-26T19:26:17.450Z,9.30
2022-11-26T19:28:46.936Z,10.77
2022-11-26T19:31:19.078Z,9.23
2022-11-26T19:33:48.871Z,7.38
2022-11-26T19:36:18.502Z,6.65
2022-11-26T19:38:47.295Z,5.75
2022-11-26T19:41:15.927Z,6.93
2022-11-26T19:43:44.429Z,7.40
2022-11-26T19:46:15.579Z,7.22
2022-11-26T19:48:47.098Z,7.57
2022-11-26T19:51:17.496Z,6.25
2022-11-26T19:53:49.674Z,7.40
2022-11-26T19:56:19.759Z,6.53
2022-11-26T19:58:48.690Z,6.47
2022-11-26T20:01:18.634Z,6.65
2022-11-26T20:03:48.676Z,10.63
2022-11-26T20:06:19.681Z,5.63
2022-11-26T20:08:49.715Z,6.25
2022-11-26T20:11:19.729Z,5.80
2022-11-26T20:13:49.892Z,7.57
2022-11-26T20:16:21.071Z,6.70
2022-11-26T20:18:51.063Z,6.80
2022-11-26T20:21:21.663Z,8.68
2022-11-26T20:23:52.139Z,11.73
2022-11-26T20:26:22.776Z,11.30
2022-11-26T20:28:51.349Z,11.45
2022-11-26T20:31:23.618Z,9.48
2022-11-26T20:33:55.484Z,8.98
2022-11-26T20:36:24.687Z,8.30
2022-11-26T20:38:54.264Z,6.00
2022-11-26T20:41:26.212Z,11.45
2022-11-26T20:43:59.148Z,7.13
2022-11-26T20:46:29.015Z,9.45
2022-11-26T20:48:59.031Z,9.35
2022-11-26T20:51:27.882Z,7.65
2022-11-26T20:53:59.698Z,8.38
2022-11-26T20:56:29.163Z,6.93
2022-11-26T20:58:57.623Z,6.93
2022-11-26T21:01:28.261Z,6.72
2022-11-26T21:03:57.431Z,6.60
2022-11-26T21:06:30.585Z,7.10
2022-11-26T21:09:01.553Z,6.72
2022-11-26T21:11:31.436Z,6.75
2022-11-26T21:14:01.653Z,8.38
2022-11-26T21:16:31.334Z,6.80
2022-11-26T21:19:00.838Z,7.22
2022-11-26T21:21:31.016Z,6.00
2022-11-26T21:26:28.443Z,8.27
2022-11-26T21:28:58.519Z,7.32
2022-11-26T21:31:28.932Z,7.90
2022-11-26T21:34:00.550Z,6.78
2022-11-26T21:36:32.011Z,6.55
2022-11-26T21:39:00.551Z,7.25
2022-11-26T21:41:29.428Z,6.88
2022-11-26T21:44:02.311Z,6.47
2022-11-26T21:46:37.582Z,5.47
2022-11-26T21:49:07.620Z,6.00
2022-11-26T21:51:37.650Z,6.53
2022-11-26T21:54:06.341Z,6.72
2022-11-26T21:56:34.891Z,6.88
2022-11-26T21:59:03.456Z,7.80
2022-11-26T22:01:34.286Z,7.93
2022-11-26T22:04:07.187Z,7.65
2022-11-26T22:06:37.677Z,6.50
2022-11-26T22:09:06.767Z,6.78
2022-11-26T22:11:36.963Z,6.93
2022-11-26T22:16:35.485Z,6.50
2022-11-26T22:19:04.511Z,5.93
2022-11-26T22:21:34.475Z,7.68
2022-11-26T22:24:05.792Z,6.88
2022-11-26T22:26:34.641Z,7.53
2022-11-26T22:29:04.016Z,6.85
2022-11-26T22:31:34.024Z,6.13
2022-11-26T22:34:04.752Z,6.97
2022-11-26T22:36:34.191Z,6.80
2022-11-26T22:39:06.418Z,6.05
2022-11-26T22:41:34.919Z,6.85
2022-11-26T22:44:03.419Z,7.57
2022-11-26T22:46:34.061Z,5.80
2022-11-26T22:49:03.732Z,6.65
2022-11-26T22:51:33.840Z,7.25
2022-11-26T22:54:05.412Z,6.60
2022-11-26T22:56:34.497Z,6.68
2022-11-26T22:59:02.976Z,7.55
2022-11-26T23:01:33.173Z,6.97
2022-11-26T23:06:32.168Z,5.75
2022-11-26T23:09:03.166Z,6.32
2022-11-26T23:11:35.603Z,6.32
2022-11-26T23:14:07.151Z,6.25
2022-11-26T23:16:36.839Z,5.95
2022-11-26T23:19:06.178Z,5.43
2022-11-26T23:21:36.484Z,6.55
2022-11-26T23:24:05.914Z,7.07
2022-11-26T23:26:38.890Z,5.90
2022-11-26T23:29:08.291Z,5.70
2022-11-26T23:31:38.431Z,5.72
2022-11-26T23:36:36.052Z,5.65
2022-11-26T23:39:06.826Z,5.32
2022-11-26T23:41:36.869Z,5.97
2022-11-26T23:44:05.595Z,5.28
2022-11-26T23:46:36.351Z,6.07
2022-11-26T23:49:05.139Z,6.07
2022-11-26T23:51:34.377Z,5.40
2022-11-26T23:54:03.249Z,5.88
2022-11-26T23:56:33.489Z,6.82
